AIRPORT ID: KLEM

DATE: 2024-05-27 ZULU TIME: 21.55 LOCAL TIME: 15.55


METAR KLEM 272155Z AUTO 30015KT 10SM 21/07 A2996

ALTIMETER: A2996 Q1015

DENSITY ALT: 3700 Ft

WIND DIRECT: 310

WIND SPEED: 15 Gust

WIND CONDITIONS:

VISIBILTY: 10SM 9999M

TEMPERATURE: 69 F 21 C

DEW POINT: 45 F 7 C

HUMID: 43%

LCL: 3,000-5,000 feet

RADIO CHECK: 0

ADVISARIES: 0

GREETINGS: 1

CONVERSATIONS: 2